createdAt,value
2019-03-03T00:00:03.039Z,25.75
2019-03-03T00:01:02.698Z,26.43
2019-03-03T00:02:02.764Z,25.76
2019-03-03T00:03:02.813Z,27.35
2019-03-03T00:04:02.981Z,27.35
2019-03-03T00:05:02.898Z,27.88
2019-03-03T00:06:02.730Z,27.75
2019-03-03T00:07:03.641Z,28.15
2019-03-03T00:08:03.613Z,28.15
2019-03-03T00:09:03.596Z,26.89
2019-03-03T00:10:03.657Z,25.11
2019-03-03T00:11:03.646Z,25.93
2019-03-03T00:12:03.408Z,25.93
2019-03-03T00:13:02.928Z,27.41
2019-03-03T00:14:04.315Z,25.06
2019-03-03T00:15:03.109Z,25.06
2019-03-03T00:16:02.698Z,26.86
2019-03-03T00:17:02.898Z,26.22
2019-03-03T00:18:03.565Z,24.96
2019-03-03T00:19:03.488Z,26.12
2019-03-03T00:20:03.518Z,26.12
2019-03-03T00:21:02.574Z,26.74
2019-03-03T00:22:03.524Z,25.92
2019-03-03T00:23:03.411Z,26.69
2019-03-03T00:24:03.703Z,26.69
2019-03-03T00:25:03.401Z,28.48
2019-03-03T00:26:03.586Z,28.09
2019-03-03T00:27:03.442Z,26.72
2019-03-03T00:28:03.594Z,26.72
2019-03-03T00:29:03.487Z,28.92
2019-03-03T00:30:03.551Z,25.92
2019-03-03T00:31:03.554Z,27.72
2019-03-03T00:32:03.315Z,27.72
2019-03-03T00:33:03.390Z,29.16
2019-03-03T00:34:03.138Z,28.04
2019-03-03T00:35:02.989Z,28.04
2019-03-03T00:36:03.038Z,27.05
2019-03-03T00:37:03.347Z,28.34
2019-03-03T00:38:03.304Z,31.49
2019-03-03T00:39:03.268Z,31.49
2019-03-03T00:40:03.420Z,26.92
2019-03-03T00:41:02.889Z,27.61
2019-03-03T00:42:03.287Z,26.39
2019-03-03T00:43:03.258Z,25.85
2019-03-03T00:44:03.630Z,25.85
2019-03-03T00:45:03.483Z,31.99
2019-03-03T00:46:03.327Z,27.65
2019-03-03T00:47:03.535Z,27.48
2019-03-03T00:48:03.564Z,27.48
2019-03-03T00:49:03.378Z,26.35
2019-03-03T00:50:03.105Z,28.62
2019-03-03T00:51:03.361Z,28.62
2019-03-03T00:52:03.313Z,25.99
2019-03-03T00:53:03.273Z,27.01
2019-03-03T00:54:03.267Z,26.36
2019-03-03T00:55:03.319Z,26.36
2019-03-03T00:56:03.397Z,26.05
2019-03-03T00:57:03.205Z,28.11
2019-03-03T00:58:03.617Z,26.25
2019-03-03T00:59:03.302Z,26.25
2019-03-03T01:00:03.138Z,27.61
2019-03-03T01:01:03.255Z,29.01
2019-03-03T01:02:03.089Z,25.83
2019-03-03T01:03:03.011Z,25.83
2019-03-03T01:04:03.176Z,27.63
2019-03-03T01:05:03.371Z,29.56
2019-03-03T01:06:03.158Z,28.35
2019-03-03T01:07:03.051Z,28.35
2019-03-03T01:08:03.165Z,25.75
2019-03-03T01:09:02.967Z,26.82
2019-03-03T01:10:03.141Z,28.03
2019-03-03T01:11:02.845Z,28.03
2019-03-03T01:12:02.884Z,29.66
2019-03-03T01:13:02.925Z,27.77
2019-03-03T01:14:02.418Z,27.91
2019-03-03T01:15:02.875Z,27.91
2019-03-03T01:16:02.933Z,27.32
2019-03-03T01:17:03.408Z,27.08
2019-03-03T01:18:02.836Z,26.3
2019-03-03T01:19:02.760Z,26.3
2019-03-03T01:20:02.824Z,27.09
2019-03-03T01:21:03.670Z,26.68
2019-03-03T01:22:03.734Z,28.12
2019-03-03T01:23:03.510Z,28.12
2019-03-03T01:24:03.250Z,29.08
2019-03-03T01:25:03.555Z,26.61
2019-03-03T01:26:03.359Z,28.92
2019-03-03T01:27:02.720Z,28.92
2019-03-03T01:28:03.492Z,23.78
2019-03-03T01:29:03.389Z,27.73
2019-03-03T01:30:03.493Z,26.23
2019-03-03T01:31:03.097Z,26.23
2019-03-03T01:32:03.469Z,24.27
2019-03-03T01:33:03.367Z,25.23
2019-03-03T01:34:03.356Z,23.65
2019-03-03T01:35:03.590Z,23.65
2019-03-03T01:36:03.263Z,25.92
2019-03-03T01:37:03.254Z,25.93
2019-03-03T01:38:03.153Z,23.94
2019-03-03T01:39:03.161Z,23.94
2019-03-03T01:40:03.317Z,24.86
2019-03-03T01:41:03.230Z,24.83
2019-03-03T01:42:03.264Z,25.14
2019-03-03T01:43:03.123Z,25.14
2019-03-03T01:44:02.967Z,25.66
2019-03-03T01:45:03.000Z,23.22
2019-03-03T01:46:03.118Z,25.06
2019-03-03T01:47:03.241Z,25.06
2019-03-03T01:48:02.969Z,23.96
2019-03-03T01:49:02.978Z,25.75
2019-03-03T01:50:02.943Z,24.74
2019-03-03T01:51:02.948Z,24.74
2019-03-03T01:52:02.528Z,24.59
2019-03-03T01:53:02.863Z,23.07
2019-03-03T01:54:02.377Z,23.07
2019-03-03T01:55:02.891Z,24.6
2019-03-03T01:56:02.756Z,22.71
2019-03-03T01:57:02.900Z,25.09
2019-03-03T01:58:03.280Z,25.09
2019-03-03T01:59:02.855Z,25.67
2019-03-03T02:00:02.702Z,22.75
2019-03-03T02:01:03.398Z,20.71
2019-03-03T02:02:03.319Z,25.33
2019-03-03T02:03:03.338Z,25.33
2019-03-03T02:04:03.567Z,23.19
2019-03-03T02:05:03.600Z,23.25
2019-03-03T02:06:03.543Z,23.12
2019-03-03T02:07:03.649Z,23.12
2019-03-03T02:08:03.522Z,21.81
2019-03-03T02:09:03.405Z,23.02
2019-03-03T02:10:02.737Z,23.02
2019-03-03T02:11:03.433Z,21.88
2019-03-03T02:12:02.601Z,21.02
2019-03-03T02:13:03.579Z,23.74
2019-03-03T02:14:03.323Z,23.74
2019-03-03T02:15:03.701Z,22.51
2019-03-03T02:16:02.163Z,24.86
2019-03-03T02:17:03.672Z,22.48
2019-03-03T02:18:03.510Z,22.48
2019-03-03T02:19:03.414Z,21.45
2019-03-03T02:20:03.252Z,21.31
2019-03-03T02:21:03.485Z,21.99
2019-03-03T02:22:03.500Z,21.99
2019-03-03T02:23:03.180Z,22.72
2019-03-03T02:24:03.198Z,25.25
2019-03-03T02:25:03.266Z,20.58
2019-03-03T02:26:03.096Z,20.58
2019-03-03T02:27:03.157Z,19.36
2019-03-03T02:28:03.255Z,20.55
2019-03-03T02:29:03.208Z,19.69
2019-03-03T02:30:03.323Z,19.69
2019-03-03T02:31:02.875Z,22.51
2019-03-03T02:32:03.042Z,21.5
2019-03-03T02:33:02.705Z,19.08
2019-03-03T02:34:03.155Z,19.08
2019-03-03T02:35:03.203Z,22.19
2019-03-03T02:36:03.285Z,20.08
2019-03-03T02:37:03.155Z,18.72
2019-03-03T02:38:03.098Z,18.72
2019-03-03T02:39:03.147Z,18.99
2019-03-03T02:40:01.976Z,20.51
2019-03-03T02:41:03.156Z,19.38
2019-03-03T02:42:03.331Z,19.38
2019-03-03T02:43:03.600Z,21.03
2019-03-03T02:44:02.714Z,18.76
2019-03-03T02:45:03.158Z,17.74
2019-03-03T02:46:02.880Z,17.74
2019-03-03T02:47:03.103Z,18.86
2019-03-03T02:48:02.720Z,19.82
2019-03-03T02:49:02.886Z,20.06
2019-03-03T02:50:02.884Z,20.06
2019-03-03T02:51:02.821Z,16.48
2019-03-03T02:52:02.847Z,18.58
2019-03-03T02:53:03.708Z,18.87
2019-03-03T02:54:02.753Z,18.87
2019-03-03T02:55:02.843Z,21.17
2019-03-03T02:56:03.336Z,17
2019-03-03T02:57:02.377Z,16.17
2019-03-03T02:58:02.817Z,16.17
2019-03-03T02:59:02.837Z,18.51
2019-03-03T03:00:03.146Z,15.8
2019-03-03T03:01:02.746Z,19.98
2019-03-03T03:02:02.845Z,19.98
2019-03-03T03:03:03.087Z,19.41
2019-03-03T03:04:03.430Z,17.34
2019-03-03T03:05:02.906Z,15.75
2019-03-03T03:06:02.792Z,15.75
2019-03-03T03:07:02.773Z,14.51
2019-03-03T03:08:02.880Z,17.31
2019-03-03T03:09:02.777Z,16.46
2019-03-03T03:10:02.870Z,16.46
2019-03-03T03:11:03.434Z,18.42
2019-03-03T03:12:03.648Z,14.99
2019-03-03T03:13:03.558Z,17.68
2019-03-03T03:14:03.583Z,17.68
2019-03-03T03:15:03.434Z,16.46
2019-03-03T03:16:03.314Z,16.74
2019-03-03T03:17:03.402Z,15.14
2019-03-03T03:18:03.500Z,15.14
2019-03-03T03:19:03.446Z,17.18
2019-03-03T03:20:03.348Z,15.91
2019-03-03T03:21:03.262Z,15.62
2019-03-03T03:22:03.356Z,15.62
2019-03-03T03:23:03.490Z,15.22
2019-03-03T03:24:03.241Z,14.37
2019-03-03T03:25:03.396Z,16.59
2019-03-03T03:26:03.272Z,16.59
2019-03-03T03:27:03.152Z,19.15
2019-03-03T03:28:03.040Z,17.22
2019-03-03T03:29:03.356Z,18.81
2019-03-03T03:30:03.281Z,18.81
2019-03-03T03:31:03.213Z,17.98
2019-03-03T03:32:03.156Z,17.54
2019-03-03T03:33:02.805Z,16.29
2019-03-03T03:34:03.255Z,16.29
2019-03-03T03:35:03.055Z,17.05
2019-03-03T03:36:02.921Z,16.07
2019-03-03T03:37:02.838Z,14.99
2019-03-03T03:38:03.159Z,14.99
2019-03-03T03:39:01.703Z,16.29
2019-03-03T03:40:03.046Z,15.25
2019-03-03T03:41:03.041Z,15.25
2019-03-03T03:42:02.982Z,20.24
2019-03-03T03:43:02.601Z,16.79
2019-03-03T03:44:02.921Z,15.18
2019-03-03T03:45:02.882Z,15.18
2019-03-03T03:46:02.930Z,15.82
2019-03-03T03:47:02.915Z,15.98
2019-03-03T03:48:03.581Z,15.22
2019-03-03T03:49:03.695Z,15.85
2019-03-03T03:50:02.693Z,15.85
2019-03-03T03:51:02.729Z,16.02
2019-03-03T03:52:03.497Z,15.93
2019-03-03T03:53:03.569Z,16.26
2019-03-03T03:54:03.494Z,16.26
2019-03-03T03:55:02.739Z,14.17
2019-03-03T03:56:03.580Z,14.79
2019-03-03T03:57:02.540Z,14.79
2019-03-03T03:58:03.650Z,13.31
2019-03-03T03:59:03.576Z,13.31
2019-03-03T04:00:03.567Z,14.42
2019-03-03T04:01:03.456Z,14.42
2019-03-03T04:02:03.388Z,17.82
2019-03-03T04:03:03.310Z,16.22
2019-03-03T04:04:03.603Z,15.5
2019-03-03T04:05:03.591Z,15.5
2019-03-03T04:06:03.538Z,16.98
2019-03-03T04:07:03.149Z,14.96
2019-03-03T04:08:03.349Z,14.28
2019-03-03T04:09:03.447Z,14.28
2019-03-03T04:10:03.223Z,16.84
2019-03-03T04:11:03.471Z,15.76
2019-03-03T04:12:03.262Z,15.69
2019-03-03T04:13:03.284Z,15.69
2019-03-03T04:14:03.322Z,14.39
2019-03-03T04:15:03.247Z,16.26
2019-03-03T04:16:03.256Z,14.69
2019-03-03T04:17:03.234Z,14.69
2019-03-03T04:18:03.015Z,15.65
2019-03-03T04:19:03.266Z,16.65
2019-03-03T04:20:03.064Z,15.01
2019-03-03T04:21:03.298Z,15.01
2019-03-03T04:22:02.678Z,13.44
2019-03-03T04:23:03.404Z,12.76
2019-03-03T04:24:03.153Z,15.11
2019-03-03T04:25:03.159Z,15.11
2019-03-03T04:26:03.074Z,16.14
2019-03-03T04:27:02.849Z,13.94
2019-03-03T04:28:03.168Z,13.36
2019-03-03T04:29:02.761Z,13.36
2019-03-03T04:30:03.417Z,13.7
2019-03-03T04:31:02.672Z,14.55
2019-03-03T04:32:03.080Z,15.68
2019-03-03T04:33:03.537Z,15.68
2019-03-03T04:34:02.822Z,13.11
2019-03-03T04:35:02.751Z,14.25
2019-03-03T04:36:03.053Z,14.98
2019-03-03T04:37:02.876Z,14.98
2019-03-03T04:38:02.888Z,16
2019-03-03T04:39:02.969Z,14.03
2019-03-03T04:40:02.906Z,14.91
2019-03-03T04:41:02.816Z,14.91
2019-03-03T04:42:02.601Z,16.88
2019-03-03T04:43:02.471Z,16.4
2019-03-03T04:44:03.582Z,13.48
2019-03-03T04:45:02.603Z,13.48
2019-03-03T04:46:03.487Z,14.35
2019-03-03T04:47:03.002Z,16.39
2019-03-03T04:48:03.578Z,14.08
2019-03-03T04:49:02.636Z,14.08
2019-03-03T04:50:03.765Z,14.66
2019-03-03T04:51:03.243Z,14.3
2019-03-03T04:52:03.498Z,15.62
2019-03-03T04:53:03.770Z,15.62
2019-03-03T04:54:03.471Z,18.03
2019-03-03T04:55:03.311Z,14.1
2019-03-03T04:56:03.550Z,14.91
2019-03-03T04:57:03.334Z,14.91
2019-03-03T04:58:02.909Z,16.24
2019-03-03T04:59:03.019Z,14.79
2019-03-03T05:00:03.282Z,14.41
2019-03-03T05:01:03.105Z,14.41
2019-03-03T05:02:02.563Z,13.89
2019-03-03T05:03:03.083Z,16.62
2019-03-03T05:04:03.127Z,16.62
2019-03-03T05:05:03.224Z,17.54
2019-03-03T05:06:02.836Z,15.94
2019-03-03T05:07:03.127Z,14.82
2019-03-03T05:08:02.978Z,14.72
2019-03-03T05:09:03.119Z,14.72
2019-03-03T05:10:03.120Z,15.4
2019-03-03T05:11:03.240Z,16.74
2019-03-03T05:12:02.954Z,13.94
2019-03-03T05:13:02.841Z,13.94
2019-03-03T05:14:02.740Z,15.29
2019-03-03T05:15:03.005Z,14.84
2019-03-03T05:16:02.809Z,12.72
2019-03-03T05:17:02.679Z,12.72
2019-03-03T05:18:02.563Z,15.78
2019-03-03T05:19:03.647Z,14.66
2019-03-03T05:20:02.736Z,14.66
2019-03-03T05:21:03.637Z,15.54
2019-03-03T05:22:03.515Z,13.87
2019-03-03T05:23:03.505Z,13.78
2019-03-03T05:24:02.818Z,13.78
2019-03-03T05:25:03.548Z,14.66
2019-03-03T05:26:03.596Z,13.22
2019-03-03T05:27:03.386Z,14.34
2019-03-03T05:28:03.324Z,13.24
2019-03-03T05:29:03.373Z,13.24
2019-03-03T05:30:03.848Z,13.46
2019-03-03T05:31:03.472Z,13.09
2019-03-03T05:32:03.300Z,14.08
2019-03-03T05:33:03.276Z,14.08
2019-03-03T05:34:03.271Z,13.14
2019-03-03T05:35:03.621Z,13.72
2019-03-03T05:36:03.244Z,13.72
2019-03-03T05:37:03.221Z,13.28
2019-03-03T05:38:03.464Z,15.51
2019-03-03T05:39:03.376Z,12.64
2019-03-03T05:40:03.450Z,12.64
2019-03-03T05:41:03.244Z,13.94
2019-03-03T05:42:03.346Z,16.38
2019-03-03T05:43:03.170Z,15.41
2019-03-03T05:44:03.214Z,15.41
2019-03-03T05:45:03.211Z,11.77
2019-03-03T05:46:03.227Z,15.02
2019-03-03T05:47:03.332Z,13.92
2019-03-03T05:48:03.324Z,13.92
2019-03-03T05:49:03.018Z,13.46
2019-03-03T05:50:03.208Z,13.88
2019-03-03T05:51:02.909Z,14.83
2019-03-03T05:52:03.692Z,14.83
2019-03-03T05:53:02.880Z,13.09
2019-03-03T05:54:03.002Z,13.89
2019-03-03T05:55:03.054Z,14.64
2019-03-03T05:56:02.787Z,14.64
2019-03-03T05:57:02.885Z,14.29
2019-03-03T05:58:02.998Z,13.21
2019-03-03T05:59:03.173Z,12.25
2019-03-03T06:00:02.877Z,12.25
2019-03-03T06:01:02.912Z,10.82
2019-03-03T06:02:02.863Z,11.56
2019-03-03T06:03:02.401Z,13.44
2019-03-03T06:04:03.061Z,13.44
2019-03-03T06:05:02.782Z,11.76
2019-03-03T06:06:02.959Z,10.14
2019-03-03T06:07:03.519Z,13.23
2019-03-03T06:08:02.714Z,13.23
2019-03-03T06:09:03.535Z,14.19
2019-03-03T06:10:03.652Z,12.03
2019-03-03T06:11:03.467Z,14.36
2019-03-03T06:12:03.503Z,14.36
2019-03-03T06:13:03.644Z,13.51
2019-03-03T06:14:03.525Z,12.5
2019-03-03T06:15:03.443Z,11.91
2019-03-03T06:16:03.641Z,11.91
2019-03-03T06:17:03.421Z,11.62
2019-03-03T06:18:03.354Z,12.45
2019-03-03T06:19:03.731Z,13.31
2019-03-03T06:20:03.307Z,13.31
2019-03-03T06:21:03.173Z,10.46
2019-03-03T06:22:03.451Z,10.75
2019-03-03T06:23:03.333Z,10.91
2019-03-03T06:24:03.145Z,10.91
2019-03-03T06:25:03.478Z,11.59
2019-03-03T06:26:03.282Z,11.61
2019-03-03T06:27:03.336Z,11.17
2019-03-03T06:28:03.002Z,11.17
2019-03-03T06:29:03.171Z,11.46
2019-03-03T06:30:05.431Z,10.69
2019-03-03T06:31:03.282Z,10.29
2019-03-03T06:32:03.074Z,10.29
2019-03-03T06:33:03.206Z,9.26
2019-03-03T06:34:02.969Z,10.51
2019-03-03T06:35:03.179Z,12.12
2019-03-03T06:36:03.183Z,12.12
2019-03-03T06:37:03.206Z,9.91
2019-03-03T06:38:03.215Z,10.64
2019-03-03T06:39:02.711Z,11.98
2019-03-03T06:40:03.194Z,11.98
2019-03-03T06:41:03.057Z,8.3
2019-03-03T06:42:03.236Z,10.19
2019-03-03T06:43:03.203Z,10.19
2019-03-03T06:44:03.257Z,9.89
2019-03-03T06:45:02.946Z,9.04
2019-03-03T06:46:03.031Z,9.09
2019-03-03T06:47:02.996Z,8.26
2019-03-03T06:48:02.880Z,8.26
2019-03-03T06:49:02.938Z,8.64
2019-03-03T06:50:03.085Z,8.88
2019-03-03T06:51:03.194Z,7.64
2019-03-03T06:52:03.676Z,7.64
2019-03-03T06:53:02.794Z,8.51
2019-03-03T06:54:03.113Z,8.97
2019-03-03T06:55:02.818Z,7.95
2019-03-03T06:56:02.729Z,7.95
2019-03-03T06:57:02.900Z,14.55
2019-03-03T06:58:02.463Z,8.31
2019-03-03T06:59:03.539Z,9.61
2019-03-03T07:00:02.755Z,9.61
2019-03-03T07:01:03.375Z,7.1
2019-03-03T07:02:02.566Z,7.59
2019-03-03T07:03:02.904Z,7.59
2019-03-03T07:04:02.917Z,10.29
2019-03-03T07:05:02.944Z,9.45
2019-03-03T07:06:02.850Z,9.94
2019-03-03T07:07:04.220Z,10.1
2019-03-03T07:08:02.901Z,10.1
2019-03-03T07:09:03.473Z,8.64
2019-03-03T07:10:03.598Z,10.79
2019-03-03T07:11:03.576Z,7.92
2019-03-03T07:12:03.507Z,7.92
2019-03-03T07:13:03.724Z,10.6
2019-03-03T07:14:03.559Z,7.75
2019-03-03T07:15:03.550Z,7.75
2019-03-03T07:16:03.272Z,8.86
2019-03-03T07:17:03.624Z,8.68
2019-03-03T07:18:03.276Z,7.38
2019-03-03T07:19:03.397Z,8.64
2019-03-03T07:20:03.396Z,8.64
2019-03-03T07:21:03.295Z,7.38
2019-03-03T07:22:03.411Z,7.66
2019-03-03T07:23:03.326Z,6.75
2019-03-03T07:24:03.294Z,6.75
2019-03-03T07:25:03.415Z,7.11
2019-03-03T07:26:02.958Z,9.34
2019-03-03T07:27:03.138Z,6.89
2019-03-03T07:28:03.281Z,6.89
2019-03-03T07:29:03.040Z,6.5
2019-03-03T07:30:03.231Z,7.06
2019-03-03T07:31:02.965Z,7.06
2019-03-03T07:32:03.266Z,8.51
2019-03-03T07:33:03.122Z,7.61
2019-03-03T07:34:03.203Z,6.92
2019-03-03T07:35:03.130Z,6.92
2019-03-03T07:36:03.131Z,6.22
2019-03-03T07:37:03.086Z,7.7
2019-03-03T07:38:02.872Z,7.61
2019-03-03T07:39:02.913Z,7.61
2019-03-03T07:40:02.646Z,6.56
2019-03-03T07:41:03.016Z,7.15
2019-03-03T07:42:02.821Z,7.68
2019-03-03T07:43:02.910Z,6.23
2019-03-03T07:44:02.911Z,6.23
2019-03-03T07:45:04.539Z,6.4
2019-03-03T07:46:03.578Z,6.61
2019-03-03T07:47:02.804Z,6.61
2019-03-03T07:48:03.681Z,9.32
2019-03-03T07:49:04.239Z,7.7
2019-03-03T07:50:03.313Z,6.84
2019-03-03T07:51:02.918Z,6.84
2019-03-03T07:52:02.894Z,8.71
2019-03-03T07:53:03.652Z,7.66
2019-03-03T07:54:03.754Z,5.89
2019-03-03T07:55:03.644Z,5.89
2019-03-03T07:56:03.656Z,5.91
2019-03-03T07:57:02.518Z,6.62
2019-03-03T07:58:03.566Z,7.71
2019-03-03T07:59:03.338Z,7.71
2019-03-03T08:00:03.607Z,6.76
2019-03-03T08:01:03.345Z,6.33
2019-03-03T08:02:02.700Z,6.85
2019-03-03T08:03:03.375Z,6.85
2019-03-03T08:04:03.758Z,6.14
2019-03-03T08:05:02.837Z,6.42
2019-03-03T08:06:03.445Z,5.4
2019-03-03T08:07:03.384Z,5.4
2019-03-03T08:08:03.973Z,6.19
2019-03-03T08:09:03.362Z,5.5
2019-03-03T08:10:03.494Z,6.91
2019-03-03T08:11:03.636Z,6.91
2019-03-03T08:12:03.677Z,7.62
2019-03-03T08:13:09.104Z,10.28
2019-03-03T08:14:03.438Z,6.42
2019-03-03T08:15:03.221Z,6.42
2019-03-03T08:16:02.809Z,5.67
2019-03-03T08:17:03.328Z,6.54
2019-03-03T08:18:03.310Z,5.84
2019-03-03T08:19:03.191Z,5.84
2019-03-03T08:20:03.451Z,5.01
2019-03-03T08:21:01.987Z,6.2
2019-03-03T08:22:03.325Z,7.19
2019-03-03T08:23:03.172Z,7.19
2019-03-03T08:24:03.204Z,4.81
2019-03-03T08:25:03.071Z,6.75
2019-03-03T08:26:03.128Z,6.88
2019-03-03T08:27:03.113Z,6.88
2019-03-03T08:28:02.910Z,5.31
2019-03-03T08:29:02.966Z,7.19
2019-03-03T08:30:02.901Z,5.24
2019-03-03T08:31:03.103Z,5.24
2019-03-03T08:32:02.777Z,5.4
2019-03-03T08:33:03.039Z,6.04
2019-03-03T08:34:02.732Z,6.19
2019-03-03T08:35:02.852Z,6.19
2019-03-03T08:36:02.603Z,6.26
2019-03-03T08:37:02.965Z,6
2019-03-03T08:38:03.705Z,5.3
2019-03-03T08:39:03.577Z,5.3
2019-03-03T08:40:02.763Z,8.61
2019-03-03T08:41:02.671Z,4.62
2019-03-03T08:42:03.712Z,6.55
2019-03-03T08:43:04.156Z,6.55
2019-03-03T08:44:03.541Z,7.59
2019-03-03T08:45:03.566Z,5.78
2019-03-03T08:46:03.496Z,4.64
2019-03-03T08:47:03.470Z,4.64
2019-03-03T08:48:03.493Z,6.49
2019-03-03T08:49:03.372Z,6.77
2019-03-03T08:50:02.824Z,7.43
2019-03-03T08:51:03.725Z,7.43
2019-03-03T08:52:02.895Z,7.43
2019-03-03T08:53:03.476Z,7.65
2019-03-03T08:54:03.260Z,8.33
2019-03-03T08:55:03.479Z,8.33
2019-03-03T08:56:03.341Z,6.59
2019-03-03T08:57:03.277Z,6
2019-03-03T08:58:03.235Z,6
2019-03-03T08:59:03.384Z,7.48
2019-03-03T09:00:03.379Z,6.75
2019-03-03T09:01:03.351Z,6.48
2019-03-03T09:02:03.316Z,6.48
2019-03-03T09:03:03.255Z,5.75
2019-03-03T09:04:03.309Z,7.61
2019-03-03T09:05:03.240Z,8.72
2019-03-03T09:06:03.104Z,5.87
2019-03-03T09:07:03.203Z,5.87
2019-03-03T09:08:03.202Z,5.9
2019-03-03T09:09:02.874Z,5.72
2019-03-03T09:10:03.170Z,5.69
2019-03-03T09:11:03.328Z,5.69
2019-03-03T09:12:03.019Z,7.02
2019-03-03T09:13:02.960Z,5.64
2019-03-03T09:14:03.057Z,5.64
2019-03-03T09:15:03.490Z,8.44
2019-03-03T09:16:03.580Z,7.55
2019-03-03T09:17:03.255Z,6.37
2019-03-03T09:18:02.851Z,6.37
2019-03-03T09:19:03.384Z,6.37
2019-03-03T09:20:02.448Z,6.46
2019-03-03T09:21:03.712Z,5.64
2019-03-03T09:22:04.732Z,5.64
2019-03-03T09:23:03.591Z,5.37
2019-03-03T09:24:03.392Z,5.96
2019-03-03T09:25:03.578Z,6.96
2019-03-03T09:26:03.562Z,6.96
2019-03-03T09:27:03.418Z,9.3
2019-03-03T09:28:02.986Z,5.28
2019-03-03T09:29:02.603Z,6.81
2019-03-03T09:30:03.569Z,6.81
2019-03-03T09:31:02.736Z,5.62
2019-03-03T09:32:03.562Z,7.69
2019-03-03T09:33:03.414Z,6.54
2019-03-03T09:34:03.217Z,6.54
2019-03-03T09:35:03.579Z,6.57
2019-03-03T09:36:03.369Z,5.75
2019-03-03T09:37:03.194Z,7.88
2019-03-03T09:38:03.359Z,7.88
2019-03-03T09:39:03.148Z,6.14
2019-03-03T09:40:09.198Z,6.28
2019-03-03T09:41:03.134Z,6.15
2019-03-03T09:42:03.535Z,6.15
2019-03-03T09:43:03.297Z,6.62
2019-03-03T09:44:03.264Z,5.18
2019-03-03T09:45:03.068Z,3.93
2019-03-03T09:46:03.300Z,3.93
2019-03-03T09:47:03.220Z,3.96
2019-03-03T09:48:03.217Z,8.34
2019-03-03T09:49:03.206Z,7.93
2019-03-03T09:50:02.914Z,7.93
2019-03-03T09:51:03.040Z,6.54
2019-03-03T09:52:02.961Z,8.12
2019-03-03T09:53:02.983Z,5.93
2019-03-03T09:54:03.102Z,5.93
2019-03-03T09:55:03.341Z,7.07
2019-03-03T09:56:03.108Z,6.99
2019-03-03T09:57:03.068Z,6.77
2019-03-03T09:58:03.642Z,6.77
2019-03-03T09:59:02.873Z,6.65
2019-03-03T10:00:03.147Z,6.65
2019-03-03T10:01:02.861Z,5.73
2019-03-03T10:02:02.949Z,5.73
2019-03-03T10:03:02.883Z,6.21
2019-03-03T10:04:02.889Z,6.35
2019-03-03T10:05:02.822Z,7.1
2019-03-03T10:06:03.042Z,7.1
2019-03-03T10:07:03.673Z,4.44
2019-03-03T10:08:03.639Z,6.15
2019-03-03T10:09:03.691Z,7.86
2019-03-03T10:10:03.739Z,7.86
2019-03-03T10:11:03.423Z,10.53
2019-03-03T10:12:03.562Z,5.14
2019-03-03T10:13:02.732Z,8.43
2019-03-03T10:14:03.688Z,8.43
2019-03-03T10:15:03.520Z,7.58
2019-03-03T10:16:03.665Z,4.82
2019-03-03T10:17:02.669Z,4.11
2019-03-03T10:18:03.255Z,4.11
2019-03-03T10:19:07.069Z,5.31
2019-03-03T10:20:03.692Z,4.56
2019-03-03T10:21:03.562Z,6.55
2019-03-03T10:22:03.062Z,6.55
2019-03-03T10:23:03.479Z,4.42
2019-03-03T10:24:03.537Z,5.59
2019-03-03T10:25:03.147Z,7.64
2019-03-03T10:26:03.338Z,7.64
2019-03-03T10:27:03.231Z,4.95
2019-03-03T10:28:03.446Z,4.71
2019-03-03T10:29:03.185Z,6.63
2019-03-03T10:30:03.475Z,6.63
2019-03-03T10:31:02.964Z,6.03
2019-03-03T10:32:03.256Z,7.94
2019-03-03T10:33:03.036Z,5.33
2019-03-03T10:34:02.971Z,5.33
2019-03-03T10:35:03.109Z,5.39
2019-03-03T10:36:03.151Z,7.2
2019-03-03T10:37:03.203Z,7.2
2019-03-03T10:38:03.035Z,6.15
2019-03-03T10:39:03.022Z,5.18
2019-03-03T10:40:03.946Z,6.63
2019-03-03T10:41:02.996Z,5.75
2019-03-03T10:42:02.497Z,5.75
2019-03-03T10:43:02.874Z,8.23
2019-03-03T10:44:03.103Z,8.15
2019-03-03T10:45:03.157Z,7.19
2019-03-03T10:46:02.737Z,7.19
2019-03-03T10:47:02.886Z,5.91
2019-03-03T10:48:03.198Z,6.75
2019-03-03T10:49:03.019Z,6.75
2019-03-03T10:50:02.867Z,6.06
2019-03-03T10:51:02.988Z,9.11
2019-03-03T10:52:02.820Z,6.98
2019-03-03T10:53:03.440Z,4.98
2019-03-03T10:54:02.808Z,4.98
2019-03-03T10:55:02.848Z,6.77
2019-03-03T10:56:02.996Z,8.71
2019-03-03T10:57:02.825Z,8.71
2019-03-03T10:58:02.820Z,5.25
2019-03-03T10:59:03.258Z,5.29
2019-03-03T11:00:03.811Z,5.44
2019-03-03T11:01:03.749Z,7.32
2019-03-03T11:02:03.453Z,7.32
2019-03-03T11:03:03.674Z,6.51
2019-03-03T11:04:02.543Z,5.49
2019-03-03T11:05:03.793Z,5.49
2019-03-03T11:06:03.708Z,5.84
2019-03-03T11:07:03.573Z,6.41
2019-03-03T11:08:03.556Z,5.76
2019-03-03T11:09:03.634Z,5.76
2019-03-03T11:10:03.494Z,5.15
2019-03-03T11:11:03.582Z,6.09
2019-03-03T11:12:03.182Z,5.15
2019-03-03T11:13:03.293Z,6.05
2019-03-03T11:14:03.330Z,6.05
2019-03-03T11:15:03.534Z,8.42
2019-03-03T11:16:03.192Z,3.85
2019-03-03T11:17:03.319Z,5.99
2019-03-03T11:18:03.300Z,5.99
2019-03-03T11:19:02.709Z,8.54
2019-03-03T11:20:03.379Z,6.08
2019-03-03T11:21:02.974Z,6.08
2019-03-03T11:22:03.169Z,5.81
2019-03-03T11:23:02.976Z,5.82
2019-03-03T11:24:02.977Z,6.39
2019-03-03T11:25:02.626Z,6.39
2019-03-03T11:26:03.151Z,5.88
2019-03-03T11:27:03.164Z,6.44
2019-03-03T11:28:03.215Z,4.88
2019-03-03T11:29:03.094Z,4.88
2019-03-03T11:30:03.374Z,6.28
2019-03-03T11:31:03.060Z,5.35
2019-03-03T11:32:03.215Z,6.86
2019-03-03T11:33:03.016Z,6.86
2019-03-03T11:34:02.857Z,4.38
2019-03-03T11:35:03.273Z,4.71
2019-03-03T11:36:02.784Z,5.12
2019-03-03T11:37:02.958Z,5.12
2019-03-03T11:38:02.738Z,5.22
2019-03-03T11:39:03.141Z,5.8
2019-03-03T11:40:03.037Z,4.33
2019-03-03T11:41:02.841Z,4.33
2019-03-03T11:42:03.400Z,5.38
2019-03-03T11:43:03.015Z,4.99
2019-03-03T11:44:03.596Z,6.17
2019-03-03T11:45:03.698Z,6.17
2019-03-03T11:46:04.135Z,8.98
2019-03-03T11:47:02.864Z,6.01
2019-03-03T11:48:04.563Z,7.74
2019-03-03T11:49:03.544Z,7.74
2019-03-03T11:50:03.003Z,5.68
2019-03-03T11:51:03.766Z,6.41
2019-03-03T11:52:03.660Z,6.75
2019-03-03T11:53:03.708Z,6.75
2019-03-03T11:54:02.824Z,4.54
2019-03-03T11:55:02.944Z,4.21
2019-03-03T11:56:03.066Z,4.21
2019-03-03T11:57:03.930Z,5.93
2019-03-03T11:58:06.111Z,7.29
2019-03-03T11:59:02.744Z,5.11
2019-03-03T12:00:03.739Z,5.15
2019-03-03T12:01:02.935Z,5.15
2019-03-03T12:02:03.377Z,4.88
2019-03-03T12:03:03.730Z,5.12
2019-03-03T12:04:03.366Z,6.66
2019-03-03T12:05:03.621Z,6.66
2019-03-03T12:06:03.387Z,6.2
2019-03-03T12:07:03.495Z,4.64
2019-03-03T12:08:03.404Z,5.58
2019-03-03T12:09:03.410Z,5.58
2019-03-03T12:10:03.503Z,4.14
2019-03-03T12:11:03.575Z,5.7
2019-03-03T12:12:03.294Z,5.44
2019-03-03T12:13:03.254Z,5.44
2019-03-03T12:14:03.384Z,7.12
2019-03-03T12:15:03.552Z,6.37
2019-03-03T12:16:03.269Z,5.54
2019-03-03T12:17:03.243Z,5.54
2019-03-03T12:18:03.183Z,4.89
2019-03-03T12:19:02.806Z,6.78
2019-03-03T12:20:03.249Z,7.67
2019-03-03T12:21:03.073Z,7.67
2019-03-03T12:22:03.244Z,4.02
2019-03-03T12:23:03.063Z,5.84
2019-03-03T12:24:03.390Z,7.42
2019-03-03T12:25:03.398Z,7.42
2019-03-03T12:26:02.705Z,5.28
2019-03-03T12:27:03.084Z,6.76
2019-03-03T12:28:03.132Z,6.76
2019-03-03T12:29:02.968Z,6.26
2019-03-03T12:30:03.206Z,6.59
2019-03-03T12:31:02.976Z,6.92
2019-03-03T12:32:02.915Z,6.92
2019-03-03T12:33:02.699Z,6.14
2019-03-03T12:34:02.972Z,4.19
2019-03-03T12:35:03.002Z,5.69
2019-03-03T12:36:04.903Z,7.32
2019-03-03T12:37:03.531Z,7.32
2019-03-03T12:39:02.996Z,5.25
2019-03-03T12:40:03.089Z,6.34
2019-03-03T12:41:03.038Z,8.81
2019-03-03T12:42:03.675Z,4.33
2019-03-03T12:43:02.629Z,3.73
2019-03-03T12:44:02.730Z,6.41
2019-03-03T12:45:02.892Z,6.39
2019-03-03T12:46:03.552Z,4.89
2019-03-03T12:47:03.731Z,10.76
2019-03-03T12:48:02.433Z,4.86
2019-03-03T12:49:03.572Z,4.82
2019-03-03T12:50:03.635Z,3.56
2019-03-03T12:51:03.231Z,5.64
2019-03-03T12:52:03.681Z,4.34
2019-03-03T12:53:03.460Z,3.85
2019-03-03T12:54:03.164Z,6.54
2019-03-03T12:55:03.453Z,4.92
2019-03-03T12:56:03.889Z,4.86
2019-03-03T12:57:03.611Z,3.59
2019-03-03T12:58:03.094Z,9.02
2019-03-03T12:59:03.115Z,7.04
2019-03-03T13:00:03.388Z,10.44
2019-03-03T13:01:02.904Z,3.41
2019-03-03T13:02:03.561Z,6.54
2019-03-03T13:03:03.486Z,7.23
2019-03-03T13:04:03.541Z,5.03
2019-03-03T13:05:03.657Z,5.03
2019-03-03T13:06:03.357Z,8.92
2019-03-03T13:07:03.435Z,10.62